Terminal Aerodrome Forecast
Issued by NWS Jackson, MS

Home | Current Version | Previous Version | Text Only | Print | Product List | Glossary On
Versions: 1 2 3 4 5 6 7 8 9 10 11 12 13 14 15 16 17
000
FTUS44 KMEG 201529 AAA
TAFTUP
TAF AMD
KTUP 201529Z 2015/2112 15013G20KT P6SM SCT015 BKN035
     FM201900 19015G22KT P6SM SCT025 BKN060
     FM210000 18008KT P6SM OVC050
     FM210900 20010G20KT P6SM VCSH SCT015 OVC050=

USA.gov is the U.S. government's official web portal to all federal, state and local government web resources and services.